<?xml version="1.0" encoding="UTF-8" standalone="no" ?>
<gpx xmlns="http://www.topografix.com/GPX/1/1" xmlns:xsi="http://www.w3.org/2001/XMLSchema-instance" xsi:schemaLocation="http://www.topografix.com/GPX/1/1 http://www.topografix.com/GPX/1/1/gpx.xsd" version="1.1" creator="VisuGPX - https://www.visugpx.com">
  <metadata>
    <name>Marche du  08 12 2015</name>
    <desc><![CDATA[Decoration d\'un sapin dans la Gardiole]]></desc>
  </metadata>
  <wpt lat="43.4474" lon="3.71233">
    <ele>41.222</ele>
    <name><![CDATA[001]]></name>
    <type><![CDATA[Summit]]></type>
  </wpt>
  <wpt lat="43.45257" lon="3.71172">
    <ele>133.267</ele>
    <name><![CDATA[SAPIN1]]></name>
    <type><![CDATA[Summit]]></type>
  </wpt>
  <trk>
    <name><![CDATA[ACTIVE LOG]]></name>
    <trkseg>
      <trkpt lat="43.4476" lon="3.71233">
        <ele>42.916</ele>
        <time>2015-12-08T13:00:00Z</time>
      </trkpt>
      <trkpt lat="43.44767" lon="3.71237">
        <ele>44.358</ele>
        <time>2015-12-08T13:00:16Z</time>
      </trkpt>
      <trkpt lat="43.44822" lon="3.71293">
        <ele>41.474</ele>
        <time>2015-12-08T13:01:11Z</time>
      </trkpt>
      <trkpt lat="43.44876" lon="3.71357">
        <ele>44.358</ele>
        <time>2015-12-08T13:02:09Z</time>
      </trkpt>
      <trkpt lat="43.44934" lon="3.71411">
        <ele>43.877</ele>
        <time>2015-12-08T13:03:17Z</time>
      </trkpt>
      <trkpt lat="43.45001" lon="3.7148">
        <ele>40.513</ele>
        <time>2015-12-08T13:04:48Z</time>
      </trkpt>
      <trkpt lat="43.45063" lon="3.71552">
        <ele>44.358</ele>
        <time>2015-12-08T13:06:04Z</time>
      </trkpt>
      <trkpt lat="43.45138" lon="3.71604">
        <ele>40.032</ele>
        <time>2015-12-08T13:07:36Z</time>
      </trkpt>
      <trkpt lat="43.45209" lon="3.71666">
        <ele>51.087</ele>
        <time>2015-12-08T13:09:04Z</time>
      </trkpt>
      <trkpt lat="43.45267" lon="3.71739">
        <ele>47.242</ele>
        <time>2015-12-08T13:10:26Z</time>
      </trkpt>
      <trkpt lat="43.4535" lon="3.71763">
        <ele>57.817</ele>
        <time>2015-12-08T13:12:05Z</time>
      </trkpt>
      <trkpt lat="43.45419" lon="3.7172">
        <ele>60.7</ele>
        <time>2015-12-08T13:13:38Z</time>
      </trkpt>
      <trkpt lat="43.45479" lon="3.71653">
        <ele>59.739</ele>
        <time>2015-12-08T13:14:58Z</time>
      </trkpt>
      <trkpt lat="43.45565" lon="3.71604">
        <ele>67.43</ele>
        <time>2015-12-08T13:16:36Z</time>
      </trkpt>
      <trkpt lat="43.45655" lon="3.716">
        <ele>87.617</ele>
        <time>2015-12-08T13:18:15Z</time>
      </trkpt>
      <trkpt lat="43.45743" lon="3.71591">
        <ele>90.982</ele>
        <time>2015-12-08T13:19:52Z</time>
      </trkpt>
      <trkpt lat="43.45797" lon="3.71567">
        <ele>95.788</ele>
        <time>2015-12-08T13:23:54Z</time>
      </trkpt>
      <trkpt lat="43.45721" lon="3.7155">
        <ele>98.192</ele>
        <time>2015-12-08T13:25:15Z</time>
      </trkpt>
      <trkpt lat="43.45646" lon="3.71533">
        <ele>102.518</ele>
        <time>2015-12-08T13:26:30Z</time>
      </trkpt>
      <trkpt lat="43.4555" lon="3.71424">
        <ele>94.827</ele>
        <time>2015-12-08T13:28:50Z</time>
      </trkpt>
      <trkpt lat="43.45475" lon="3.71331">
        <ele>114.054</ele>
        <time>2015-12-08T13:30:23Z</time>
      </trkpt>
      <trkpt lat="43.45466" lon="3.71248">
        <ele>119.341</ele>
        <time>2015-12-08T13:31:43Z</time>
      </trkpt>
      <trkpt lat="43.45393" lon="3.71243">
        <ele>122.225</ele>
        <time>2015-12-08T13:33:00Z</time>
      </trkpt>
      <trkpt lat="43.45327" lon="3.71243">
        <ele>129.915</ele>
        <time>2015-12-08T13:34:11Z</time>
      </trkpt>
      <trkpt lat="43.4526" lon="3.71209">
        <ele>136.645</ele>
        <time>2015-12-08T13:35:23Z</time>
      </trkpt>
      <trkpt lat="43.45264" lon="3.71162">
        <ele>137.606</ele>
        <time>2015-12-08T13:41:18Z</time>
      </trkpt>
      <trkpt lat="43.45267" lon="3.71216">
        <ele>138.567</ele>
        <time>2015-12-08T14:03:25Z</time>
      </trkpt>
      <trkpt lat="43.45393" lon="3.71243">
        <ele>130.396</ele>
        <time>2015-12-08T14:05:43Z</time>
      </trkpt>
      <trkpt lat="43.45509" lon="3.71304">
        <ele>127.512</ele>
        <time>2015-12-08T14:09:13Z</time>
      </trkpt>
      <trkpt lat="43.45561" lon="3.71366">
        <ele>127.993</ele>
        <time>2015-12-08T14:10:38Z</time>
      </trkpt>
      <trkpt lat="43.45631" lon="3.71379">
        <ele>134.241</ele>
        <time>2015-12-08T14:11:54Z</time>
      </trkpt>
      <trkpt lat="43.45698" lon="3.71357">
        <ele>138.087</ele>
        <time>2015-12-08T14:13:14Z</time>
      </trkpt>
      <trkpt lat="43.45773" lon="3.71355">
        <ele>140.97</ele>
        <time>2015-12-08T14:14:32Z</time>
      </trkpt>
      <trkpt lat="43.45842" lon="3.71377">
        <ele>135.683</ele>
        <time>2015-12-08T14:15:39Z</time>
      </trkpt>
      <trkpt lat="43.4591" lon="3.71392">
        <ele>129.915</ele>
        <time>2015-12-08T14:16:46Z</time>
      </trkpt>
      <trkpt lat="43.45968" lon="3.71445">
        <ele>124.147</ele>
        <time>2015-12-08T14:17:52Z</time>
      </trkpt>
      <trkpt lat="43.45979" lon="3.7154">
        <ele>117.899</ele>
        <time>2015-12-08T14:18:58Z</time>
      </trkpt>
      <trkpt lat="43.46003" lon="3.7163">
        <ele>115.496</ele>
        <time>2015-12-08T14:20:04Z</time>
      </trkpt>
      <trkpt lat="43.46045" lon="3.71698">
        <ele>112.131</ele>
        <time>2015-12-08T14:21:15Z</time>
      </trkpt>
      <trkpt lat="43.46093" lon="3.71752">
        <ele>106.363</ele>
        <time>2015-12-08T14:22:20Z</time>
      </trkpt>
      <trkpt lat="43.46118" lon="3.71821">
        <ele>106.363</ele>
        <time>2015-12-08T14:23:45Z</time>
      </trkpt>
      <trkpt lat="43.46095" lon="3.71915">
        <ele>111.17</ele>
        <time>2015-12-08T14:24:54Z</time>
      </trkpt>
      <trkpt lat="43.46035" lon="3.71962">
        <ele>112.612</ele>
        <time>2015-12-08T14:25:56Z</time>
      </trkpt>
      <trkpt lat="43.45977" lon="3.72012">
        <ele>115.976</ele>
        <time>2015-12-08T14:27:27Z</time>
      </trkpt>
      <trkpt lat="43.4591" lon="3.72014">
        <ele>114.534</ele>
        <time>2015-12-08T14:28:30Z</time>
      </trkpt>
      <trkpt lat="43.45852" lon="3.71973">
        <ele>111.65</ele>
        <time>2015-12-08T14:29:32Z</time>
      </trkpt>
      <trkpt lat="43.45794" lon="3.71924">
        <ele>109.247</ele>
        <time>2015-12-08T14:30:38Z</time>
      </trkpt>
      <trkpt lat="43.45728" lon="3.71917">
        <ele>105.882</ele>
        <time>2015-12-08T14:31:41Z</time>
      </trkpt>
      <trkpt lat="43.45659" lon="3.71934">
        <ele>102.518</ele>
        <time>2015-12-08T14:32:49Z</time>
      </trkpt>
      <trkpt lat="43.45591" lon="3.71928">
        <ele>99.153</ele>
        <time>2015-12-08T14:33:57Z</time>
      </trkpt>
      <trkpt lat="43.45558" lon="3.71844">
        <ele>103.479</ele>
        <time>2015-12-08T14:34:59Z</time>
      </trkpt>
      <trkpt lat="43.45586" lon="3.71756">
        <ele>98.192</ele>
        <time>2015-12-08T14:36:43Z</time>
      </trkpt>
      <trkpt lat="43.45644" lon="3.71694">
        <ele>92.424</ele>
        <time>2015-12-08T14:37:56Z</time>
      </trkpt>
      <trkpt lat="43.45709" lon="3.71647">
        <ele>93.866</ele>
        <time>2015-12-08T14:39:02Z</time>
      </trkpt>
      <trkpt lat="43.45779" lon="3.71615">
        <ele>94.827</ele>
        <time>2015-12-08T14:40:08Z</time>
      </trkpt>
      <trkpt lat="43.45769" lon="3.71591">
        <ele>95.788</ele>
        <time>2015-12-08T14:41:50Z</time>
      </trkpt>
      <trkpt lat="43.45702" lon="3.716">
        <ele>89.54</ele>
        <time>2015-12-08T14:43:20Z</time>
      </trkpt>
      <trkpt lat="43.45636" lon="3.7161">
        <ele>86.175</ele>
        <time>2015-12-08T14:44:23Z</time>
      </trkpt>
      <trkpt lat="43.45567" lon="3.7161">
        <ele>80.888</ele>
        <time>2015-12-08T14:45:28Z</time>
      </trkpt>
      <trkpt lat="43.45496" lon="3.71643">
        <ele>78.004</ele>
        <time>2015-12-08T14:46:35Z</time>
      </trkpt>
      <trkpt lat="43.4544" lon="3.71694">
        <ele>75.601</ele>
        <time>2015-12-08T14:47:38Z</time>
      </trkpt>
      <trkpt lat="43.45393" lon="3.71746">
        <ele>72.717</ele>
        <time>2015-12-08T14:49:03Z</time>
      </trkpt>
      <trkpt lat="43.45329" lon="3.71761">
        <ele>68.872</ele>
        <time>2015-12-08T14:50:09Z</time>
      </trkpt>
      <trkpt lat="43.45309" lon="3.71692">
        <ele>67.91</ele>
        <time>2015-12-08T14:51:39Z</time>
      </trkpt>
      <trkpt lat="43.45249" lon="3.71645">
        <ele>64.546</ele>
        <time>2015-12-08T14:52:48Z</time>
      </trkpt>
      <trkpt lat="43.45189" lon="3.71598">
        <ele>62.142</ele>
        <time>2015-12-08T14:53:54Z</time>
      </trkpt>
      <trkpt lat="43.45131" lon="3.71548">
        <ele>58.297</ele>
        <time>2015-12-08T14:54:59Z</time>
      </trkpt>
      <trkpt lat="43.45073" lon="3.71495">
        <ele>59.739</ele>
        <time>2015-12-08T14:56:06Z</time>
      </trkpt>
      <trkpt lat="43.45011" lon="3.71434">
        <ele>61.662</ele>
        <time>2015-12-08T14:57:13Z</time>
      </trkpt>
      <trkpt lat="43.44951" lon="3.71381">
        <ele>54.932</ele>
        <time>2015-12-08T14:58:22Z</time>
      </trkpt>
      <trkpt lat="43.44889" lon="3.71342">
        <ele>51.087</ele>
        <time>2015-12-08T14:59:27Z</time>
      </trkpt>
      <trkpt lat="43.44827" lon="3.71304">
        <ele>48.203</ele>
        <time>2015-12-08T15:00:28Z</time>
      </trkpt>
      <trkpt lat="43.44771" lon="3.71241">
        <ele>52.049</ele>
        <time>2015-12-08T15:01:36Z</time>
      </trkpt>
      <trkpt lat="43.44754" lon="3.71233">
        <ele>52.529</ele>
        <time>2015-12-08T15:02:11Z</time>
      </trkpt>
      <trkpt lat="43.44754" lon="3.71233">
        <ele>52.529</ele>
        <time>2015-12-08T15:02:17Z</time>
      </trkpt>
    </trkseg>
  </trk>
</gpx>